Portada
METAR-TAF:

METAR-TAF

Aeroports :

Van, Turquia

latitud: 38-27N, longitud: 043-19E, altitud: 1667 m

Observació

L'informe es va fer fa 59 minuts, a les 11:50 UTC
Vent 4 kt del Oest/Nord-Oest, variant entre Sud-Oest i Nord
Temperatura 30°C
Humitat 35%
Pressió 1015 hPa
Visibilitat 10 km o més
Núvols disperses a una alçada de 4000 ft

METAR: LTCI 211150Z 29004KT 230V350 9999 SCT040 30/13 Q1015 NOSIG

Hora: 15:49 (12:49 UTC)

Pronòstic

L'informe es va fer fa 2 hores i 9 minuts, a les 10:40 UTC
Pronòstic vàlid del 21 a les 12 UTC al 21 a les 21 UTC
Vent 9 kt del Oest/Sud-Oest
Visibilitat 10 km o més
Núvols disperses a una alçada de 3500 ft

TAF: LTCI 211040Z 2112/2121 24009KT 9999 SCT035

Observacions i pronòstics meteorològics de més de 4000 aeroports (METAR i TAF).

Les estacions disponibles són els punts grocs i vermells al mapa.

Posi el ratolí al punt desitjat per veure el nom de l'estació.

Feu clic per veure les observacions i els pronòstics meteorològics.

Per canviar el mapa: feu clic els botons verds amb una creu de color negre per apropar; al botó verd amb un guió per allunyar la imatge; o en les fletxes verdes per a mapes adjacents.


METAR-TAF: